sensor_id;sensor_type;location;lat;lon;timestamp;P1;durP1;ratioP1;P2;durP2;ratioP2
13255;SDS011;37913;48.370;10.930;2023-06-22T00:02:03;89.47;;;44.75;;
13255;SDS011;37913;48.370;10.930;2023-06-22T00:04:30;93.30;;;46.40;;
13255;SDS011;37913;48.370;10.930;2023-06-22T00:06:57;94.07;;;45.58;;
13255;SDS011;37913;48.370;10.930;2023-06-22T00:09:24;94.97;;;46.53;;
13255;SDS011;37913;48.370;10.930;2023-06-22T00:11:53;96.80;;;46.70;;
13255;SDS011;37913;48.370;10.930;2023-06-22T00:14:20;100.50;;;48.47;;
13255;SDS011;37913;48.370;10.930;2023-06-22T00:16:47;99.43;;;46.33;;
13255;SDS011;37913;48.370;10.930;2023-06-22T00:19:19;88.03;;;44.63;;
13255;SDS011;37913;48.370;10.930;2023-06-22T00:21:46;98.63;;;47.95;;
13255;SDS011;37913;48.370;10.930;2023-06-22T00:24:17;97.70;;;46.28;;
13255;SDS011;37913;48.370;10.930;2023-06-22T00:26:44;93.38;;;45.25;;
13255;SDS011;37913;48.370;10.930;2023-06-22T00:29:13;88.60;;;45.55;;
13255;SDS011;37913;48.370;10.930;2023-06-22T00:31:40;101.40;;;46.55;;
13255;SDS011;37913;48.370;10.930;2023-06-22T00:34:07;95.97;;;45.70;;
13255;SDS011;37913;48.370;10.930;2023-06-22T00:36:34;92.30;;;44.53;;
13255;SDS011;37913;48.370;10.930;2023-06-22T00:39:01;93.80;;;45.33;;
13255;SDS011;37913;48.370;10.930;2023-06-22T00:41:28;95.63;;;46.20;;
13255;SDS011;37913;48.370;10.930;2023-06-22T00:43:55;91.80;;;45.15;;
13255;SDS011;37913;48.370;10.930;2023-06-22T00:46:24;90.70;;;44.75;;
13255;SDS011;37913;48.370;10.930;2023-06-22T00:48:51;104.85;;;46.85;;
13255;SDS011;37913;48.370;10.930;2023-06-22T00:51:22;94.22;;;46.00;;
13255;SDS011;37913;48.370;10.930;2023-06-22T00:53:49;85.95;;;44.20;;
13255;SDS011;37913;48.370;10.930;2023-06-22T00:56:17;97.95;;;46.78;;
13255;SDS011;37913;48.370;10.930;2023-06-22T00:58:49;87.18;;;44.85;;
13255;SDS011;37913;48.370;10.930;2023-06-22T01:01:18;87.57;;;44.63;;
13255;SDS011;37913;48.370;10.930;2023-06-22T01:03:49;102.82;;;47.97;;
13255;SDS011;37913;48.370;10.930;2023-06-22T01:06:19;93.60;;;45.40;;
13255;SDS011;37913;48.370;10.930;2023-06-22T01:08:53;93.50;;;45.65;;
13255;SDS011;37913;48.370;10.930;2023-06-22T01:11:31;92.82;;;44.85;;
13255;SDS011;37913;48.370;10.930;2023-06-22T01:14:05;95.32;;;46.65;;
13255;SDS011;37913;48.370;10.930;2023-06-22T01:16:37;101.65;;;46.95;;
13255;SDS011;37913;48.370;10.930;2023-06-22T01:19:13;91.00;;;45.03;;
13255;SDS011;37913;48.370;10.930;2023-06-22T01:21:55;105.90;;;47.28;;
13255;SDS011;37913;48.370;10.930;2023-06-22T01:24:26;94.57;;;45.78;;
13255;SDS011;37913;48.370;10.930;2023-06-22T01:27:04;97.55;;;46.50;;
13255;SDS011;37913;48.370;10.930;2023-06-22T01:29:48;92.72;;;44.97;;
13255;SDS011;37913;48.370;10.930;2023-06-22T01:32:16;91.45;;;45.53;;
13255;SDS011;37913;48.370;10.930;2023-06-22T01:34:44;104.75;;;47.40;;
13255;SDS011;37913;48.370;10.930;2023-06-22T01:37:12;91.55;;;45.00;;
13255;SDS011;37913;48.370;10.930;2023-06-22T01:39:41;89.80;;;44.90;;
13255;SDS011;37913;48.370;10.930;2023-06-22T01:42:08;92.88;;;45.35;;
13255;SDS011;37913;48.370;10.930;2023-06-22T01:44:36;94.93;;;45.20;;
13255;SDS011;37913;48.370;10.930;2023-06-22T01:47:05;96.40;;;45.97;;
13255;SDS011;37913;48.370;10.930;2023-06-22T01:49:33;100.75;;;47.05;;
13255;SDS011;37913;48.370;10.930;2023-06-22T01:52:00;100.28;;;47.08;;
13255;SDS011;37913;48.370;10.930;2023-06-22T01:54:27;81.50;;;43.35;;
13255;SDS011;37913;48.370;10.930;2023-06-22T01:56:54;100.30;;;46.88;;
13255;SDS011;37913;48.370;10.930;2023-06-22T01:59:25;89.90;;;44.70;;
13255;SDS011;37913;48.370;10.930;2023-06-22T02:01:57;86.20;;;44.08;;
13255;SDS011;37913;48.370;10.930;2023-06-22T02:04:36;100.18;;;46.33;;
13255;SDS011;37913;48.370;10.930;2023-06-22T02:07:09;96.80;;;45.67;;
13255;SDS011;37913;48.370;10.930;2023-06-22T02:09:41;92.45;;;44.38;;
13255;SDS011;37913;48.370;10.930;2023-06-22T02:12:10;84.30;;;43.30;;
13255;SDS011;37913;48.370;10.930;2023-06-22T02:14:39;82.93;;;43.10;;
13255;SDS011;37913;48.370;10.930;2023-06-22T02:17:08;97.03;;;45.90;;
13255;SDS011;37913;48.370;10.930;2023-06-22T02:19:37;94.03;;;45.05;;
13255;SDS011;37913;48.370;10.930;2023-06-22T02:22:04;109.32;;;48.25;;
13255;SDS011;37913;48.370;10.930;2023-06-22T02:24:31;102.85;;;46.83;;
13255;SDS011;37913;48.370;10.930;2023-06-22T02:26:58;99.28;;;46.22;;
13255;SDS011;37913;48.370;10.930;2023-06-22T02:29:26;100.45;;;46.08;;
13255;SDS011;37913;48.370;10.930;2023-06-22T02:31:54;90.80;;;45.25;;
13255;SDS011;37913;48.370;10.930;2023-06-22T02:34:21;90.50;;;44.42;;
13255;SDS011;37913;48.370;10.930;2023-06-22T02:36:50;104.13;;;45.85;;
13255;SDS011;37913;48.370;10.930;2023-06-22T02:39:18;94.07;;;44.40;;
13255;SDS011;37913;48.370;10.930;2023-06-22T02:41:47;89.35;;;44.22;;
13255;SDS011;37913;48.370;10.930;2023-06-22T02:44:16;98.55;;;45.85;;
13255;SDS011;37913;48.370;10.930;2023-06-22T02:46:43;98.72;;;45.92;;
13255;SDS011;37913;48.370;10.930;2023-06-22T02:49:10;97.70;;;45.83;;
13255;SDS011;37913;48.370;10.930;2023-06-22T02:51:38;87.15;;;43.38;;
13255;SDS011;37913;48.370;10.930;2023-06-22T02:54:07;98.97;;;45.50;;
13255;SDS011;37913;48.370;10.930;2023-06-22T02:56:34;88.35;;;44.35;;
13255;SDS011;37913;48.370;10.930;2023-06-22T02:59:01;95.10;;;45.17;;
13255;SDS011;37913;48.370;10.930;2023-06-22T03:01:28;93.80;;;45.13;;
13255;SDS011;37913;48.370;10.930;2023-06-22T03:04:03;96.35;;;46.05;;
13255;SDS011;37913;48.370;10.930;2023-06-22T03:06:30;97.45;;;45.85;;
13255;SDS011;37913;48.370;10.930;2023-06-22T03:08:58;89.93;;;44.38;;
13255;SDS011;37913;48.370;10.930;2023-06-22T03:11:27;94.18;;;44.92;;
13255;SDS011;37913;48.370;10.930;2023-06-22T03:13:54;112.95;;;48.72;;
13255;SDS011;37913;48.370;10.930;2023-06-22T03:16:21;90.65;;;45.17;;
13255;SDS011;37913;48.370;10.930;2023-06-22T03:18:48;89.57;;;44.60;;
13255;SDS011;37913;48.370;10.930;2023-06-22T03:21:15;99.82;;;45.85;;
13255;SDS011;37913;48.370;10.930;2023-06-22T03:23:42;101.90;;;47.00;;
13255;SDS011;37913;48.370;10.930;2023-06-22T03:26:09;97.43;;;45.72;;
13255;SDS011;37913;48.370;10.930;2023-06-22T03:28:38;105.97;;;47.95;;
13255;SDS011;37913;48.370;10.930;2023-06-22T03:31:05;87.50;;;44.33;;
13255;SDS011;37913;48.370;10.930;2023-06-22T03:33:32;104.07;;;47.72;;
13255;SDS011;37913;48.370;10.930;2023-06-22T03:35:59;94.70;;;46.47;;
13255;SDS011;37913;48.370;10.930;2023-06-22T03:38:26;98.28;;;46.15;;
13255;SDS011;37913;48.370;10.930;2023-06-22T03:40:53;95.40;;;45.50;;
13255;SDS011;37913;48.370;10.930;2023-06-22T03:43:20;87.88;;;44.60;;
13255;SDS011;37913;48.370;10.930;2023-06-22T03:45:48;96.97;;;45.95;;
13255;SDS011;37913;48.370;10.930;2023-06-22T03:48:15;86.78;;;44.72;;
13255;SDS011;37913;48.370;10.930;2023-06-22T03:50:42;102.78;;;47.50;;
13255;SDS011;37913;48.370;10.930;2023-06-22T03:53:10;103.20;;;48.10;;
13255;SDS011;37913;48.370;10.930;2023-06-22T03:55:40;101.18;;;47.92;;
13255;SDS011;37913;48.370;10.930;2023-06-22T03:58:13;95.28;;;46.78;;
13255;SDS011;37913;48.370;10.930;2023-06-22T04:00:40;119.78;;;51.20;;
13255;SDS011;37913;48.370;10.930;2023-06-22T04:03:08;110.55;;;49.15;;
13255;SDS011;37913;48.370;10.930;2023-06-22T04:05:37;106.25;;;48.28;;
13255;SDS011;37913;48.370;10.930;2023-06-22T04:08:05;117.22;;;98.05;;
13255;SDS011;37913;48.370;10.930;2023-06-22T04:10:32;101.15;;;47.15;;
13255;SDS011;37913;48.370;10.930;2023-06-22T04:12:59;102.47;;;48.42;;
13255;SDS011;37913;48.370;10.930;2023-06-22T04:15:26;98.55;;;46.63;;
13255;SDS011;37913;48.370;10.930;2023-06-22T04:17:54;101.45;;;46.83;;
13255;SDS011;37913;48.370;10.930;2023-06-22T04:20:22;99.95;;;46.80;;
13255;SDS011;37913;48.370;10.930;2023-06-22T04:22:50;104.88;;;47.80;;
13255;SDS011;37913;48.370;10.930;2023-06-22T04:25:17;101.55;;;48.55;;
13255;SDS011;37913;48.370;10.930;2023-06-22T04:27:45;86.13;;;44.67;;
13255;SDS011;37913;48.370;10.930;2023-06-22T04:30:12;94.63;;;46.92;;
13255;SDS011;37913;48.370;10.930;2023-06-22T04:32:40;84.78;;;44.22;;
13255;SDS011;37913;48.370;10.930;2023-06-22T04:35:07;93.43;;;45.97;;
13255;SDS011;37913;48.370;10.930;2023-06-22T04:37:36;99.78;;;47.60;;
13255;SDS011;37913;48.370;10.930;2023-06-22T04:40:04;90.97;;;45.63;;
13255;SDS011;37913;48.370;10.930;2023-06-22T04:42:33;95.20;;;46.75;;
13255;SDS011;37913;48.370;10.930;2023-06-22T04:45:00;109.53;;;48.40;;
13255;SDS011;37913;48.370;10.930;2023-06-22T04:47:27;85.40;;;44.47;;
13255;SDS011;37913;48.370;10.930;2023-06-22T04:49:54;96.07;;;46.88;;
13255;SDS011;37913;48.370;10.930;2023-06-22T04:52:21;86.85;;;44.72;;
13255;SDS011;37913;48.370;10.930;2023-06-22T04:54:51;135.88;;;53.90;;
13255;SDS011;37913;48.370;10.930;2023-06-22T04:57:20;95.10;;;46.30;;
13255;SDS011;37913;48.370;10.930;2023-06-22T04:59:58;111.43;;;50.42;;
13255;SDS011;37913;48.370;10.930;2023-06-22T05:02:36;102.22;;;48.75;;
13255;SDS011;37913;48.370;10.930;2023-06-22T05:05:04;94.03;;;47.67;;
13255;SDS011;37913;48.370;10.930;2023-06-22T05:07:32;101.20;;;47.53;;
13255;SDS011;37913;48.370;10.930;2023-06-22T05:10:00;97.72;;;47.28;;
13255;SDS011;37913;48.370;10.930;2023-06-22T05:12:28;109.28;;;50.25;;
13255;SDS011;37913;48.370;10.930;2023-06-22T05:14:55;121.10;;;51.22;;
13255;SDS011;37913;48.370;10.930;2023-06-22T05:17:22;90.72;;;45.40;;
13255;SDS011;37913;48.370;10.930;2023-06-22T05:19:49;93.55;;;46.88;;
13255;SDS011;37913;48.370;10.930;2023-06-22T05:22:16;96.50;;;47.83;;
13255;SDS011;37913;48.370;10.930;2023-06-22T05:24:43;98.97;;;47.88;;
13255;SDS011;37913;48.370;10.930;2023-06-22T05:27:12;90.50;;;45.70;;
13255;SDS011;37913;48.370;10.930;2023-06-22T05:29:39;95.40;;;47.47;;
13255;SDS011;37913;48.370;10.930;2023-06-22T05:32:07;101.45;;;48.58;;
13255;SDS011;37913;48.370;10.930;2023-06-22T05:34:35;93.40;;;47.25;;
13255;SDS011;37913;48.370;10.930;2023-06-22T05:37:02;96.57;;;48.28;;
13255;SDS011;37913;48.370;10.930;2023-06-22T05:39:29;94.55;;;48.33;;
13255;SDS011;37913;48.370;10.930;2023-06-22T05:41:56;98.32;;;48.15;;
13255;SDS011;37913;48.370;10.930;2023-06-22T05:44:24;103.45;;;49.08;;
13255;SDS011;37913;48.370;10.930;2023-06-22T05:46:51;94.65;;;47.47;;
13255;SDS011;37913;48.370;10.930;2023-06-22T05:49:18;95.40;;;47.83;;
13255;SDS011;37913;48.370;10.930;2023-06-22T05:51:47;93.78;;;47.83;;
13255;SDS011;37913;48.370;10.930;2023-06-22T05:54:13;90.40;;;47.63;;
13255;SDS011;37913;48.370;10.930;2023-06-22T05:56:43;94.70;;;49.00;;
13255;SDS011;37913;48.370;10.930;2023-06-22T05:59:09;89.95;;;48.28;;
13255;SDS011;37913;48.370;10.930;2023-06-22T06:01:38;91.28;;;48.72;;
13255;SDS011;37913;48.370;10.930;2023-06-22T06:04:05;98.80;;;50.55;;
13255;SDS011;37913;48.370;10.930;2023-06-22T06:06:33;94.57;;;49.80;;
13255;SDS011;37913;48.370;10.930;2023-06-22T06:09:02;107.68;;;53.20;;
13255;SDS011;37913;48.370;10.930;2023-06-22T06:11:29;100.25;;;51.13;;
13255;SDS011;37913;48.370;10.930;2023-06-22T06:13:56;97.43;;;50.78;;
13255;SDS011;37913;48.370;10.930;2023-06-22T06:16:23;105.78;;;52.42;;
13255;SDS011;37913;48.370;10.930;2023-06-22T06:18:51;90.88;;;50.42;;
13255;SDS011;37913;48.370;10.930;2023-06-22T06:21:20;104.75;;;53.33;;
13255;SDS011;37913;48.370;10.930;2023-06-22T06:23:47;112.22;;;54.00;;
13255;SDS011;37913;48.370;10.930;2023-06-22T06:26:14;97.28;;;51.75;;
13255;SDS011;37913;48.370;10.930;2023-06-22T06:28:42;97.15;;;51.50;;
13255;SDS011;37913;48.370;10.930;2023-06-22T06:31:09;100.40;;;51.30;;
13255;SDS011;37913;48.370;10.930;2023-06-22T06:33:37;95.45;;;51.30;;
13255;SDS011;37913;48.370;10.930;2023-06-22T06:36:05;108.13;;;54.65;;
13255;SDS011;37913;48.370;10.930;2023-06-22T06:38:34;96.10;;;52.33;;
13255;SDS011;37913;48.370;10.930;2023-06-22T06:41:01;100.85;;;53.38;;
13255;SDS011;37913;48.370;10.930;2023-06-22T06:43:28;95.13;;;51.75;;
13255;SDS011;37913;48.370;10.930;2023-06-22T06:45:55;98.25;;;51.97;;
13255;SDS011;37913;48.370;10.930;2023-06-22T06:48:22;95.93;;;51.25;;
13255;SDS011;37913;48.370;10.930;2023-06-22T06:50:49;99.00;;;53.00;;
13255;SDS011;37913;48.370;10.930;2023-06-22T06:53:17;95.47;;;51.72;;
13255;SDS011;37913;48.370;10.930;2023-06-22T06:55:44;96.50;;;51.83;;
13255;SDS011;37913;48.370;10.930;2023-06-22T06:58:11;84.90;;;50.40;;
13255;SDS011;37913;48.370;10.930;2023-06-22T07:00:38;88.85;;;51.00;;
13255;SDS011;37913;48.370;10.930;2023-06-22T07:03:05;90.85;;;51.58;;
13255;SDS011;37913;48.370;10.930;2023-06-22T07:05:34;100.85;;;53.58;;
13255;SDS011;37913;48.370;10.930;2023-06-22T07:08:01;104.72;;;56.50;;
13255;SDS011;37913;48.370;10.930;2023-06-22T07:10:29;100.35;;;54.28;;
13255;SDS011;37913;48.370;10.930;2023-06-22T07:12:56;102.22;;;54.95;;
13255;SDS011;37913;48.370;10.930;2023-06-22T07:15:23;95.93;;;54.40;;
13255;SDS011;37913;48.370;10.930;2023-06-22T07:17:50;101.75;;;55.45;;
13255;SDS011;37913;48.370;10.930;2023-06-22T07:20:17;89.95;;;53.78;;
13255;SDS011;37913;48.370;10.930;2023-06-22T07:22:44;99.40;;;56.22;;
13255;SDS011;37913;48.370;10.930;2023-06-22T07:25:11;95.38;;;56.83;;
13255;SDS011;37913;48.370;10.930;2023-06-22T07:27:45;100.38;;;56.83;;
13255;SDS011;37913;48.370;10.930;2023-06-22T07:30:13;97.95;;;57.03;;
13255;SDS011;37913;48.370;10.930;2023-06-22T07:32:40;106.60;;;59.08;;
13255;SDS011;37913;48.370;10.930;2023-06-22T07:35:08;99.25;;;57.58;;
13255;SDS011;37913;48.370;10.930;2023-06-22T07:37:35;97.45;;;56.88;;
13255;SDS011;37913;48.370;10.930;2023-06-22T07:40:03;95.38;;;56.30;;
13255;SDS011;37913;48.370;10.930;2023-06-22T07:42:31;94.60;;;58.20;;
13255;SDS011;37913;48.370;10.930;2023-06-22T07:45:00;127.28;;;64.32;;
13255;SDS011;37913;48.370;10.930;2023-06-22T07:47:29;94.05;;;58.83;;
13255;SDS011;37913;48.370;10.930;2023-06-22T07:49:58;94.20;;;59.30;;
13255;SDS011;37913;48.370;10.930;2023-06-22T07:52:26;93.28;;;60.55;;
13255;SDS011;37913;48.370;10.930;2023-06-22T07:54:53;129.15;;;68.00;;
13255;SDS011;37913;48.370;10.930;2023-06-22T07:57:20;96.03;;;64.18;;
13255;SDS011;37913;48.370;10.930;2023-06-22T07:59:47;98.13;;;64.35;;
13255;SDS011;37913;48.370;10.930;2023-06-22T08:02:16;102.38;;;66.60;;
13255;SDS011;37913;48.370;10.930;2023-06-22T08:04:43;111.32;;;70.60;;
13255;SDS011;37913;48.370;10.930;2023-06-22T08:07:10;95.32;;;69.20;;
13255;SDS011;37913;48.370;10.930;2023-06-22T08:09:37;105.35;;;73.78;;
13255;SDS011;37913;48.370;10.930;2023-06-22T08:12:05;93.93;;;70.68;;
13255;SDS011;37913;48.370;10.930;2023-06-22T08:14:33;104.20;;;74.90;;
13255;SDS011;37913;48.370;10.930;2023-06-22T08:17:04;102.55;;;74.88;;
13255;SDS011;37913;48.370;10.930;2023-06-22T08:19:32;102.53;;;73.55;;
13255;SDS011;37913;48.370;10.930;2023-06-22T08:21:59;103.55;;;77.07;;
13255;SDS011;37913;48.370;10.930;2023-06-22T08:24:26;101.57;;;80.18;;
13255;SDS011;37913;48.370;10.930;2023-06-22T08:26:55;109.80;;;84.90;;
13255;SDS011;37913;48.370;10.930;2023-06-22T08:29:22;100.63;;;82.85;;
13255;SDS011;37913;48.370;10.930;2023-06-22T08:31:49;100.35;;;83.07;;
13255;SDS011;37913;48.370;10.930;2023-06-22T08:34:16;109.95;;;88.32;;
13255;SDS011;37913;48.370;10.930;2023-06-22T08:36:47;105.13;;;87.93;;
13255;SDS011;37913;48.370;10.930;2023-06-22T08:39:17;115.00;;;93.55;;
13255;SDS011;37913;48.370;10.930;2023-06-22T08:41:45;107.93;;;94.18;;
13255;SDS011;37913;48.370;10.930;2023-06-22T08:44:12;109.38;;;95.78;;
13255;SDS011;37913;48.370;10.930;2023-06-22T08:46:39;107.00;;;94.40;;
13255;SDS011;37913;48.370;10.930;2023-06-22T08:49:07;108.47;;;96.38;;
13255;SDS011;37913;48.370;10.930;2023-06-22T08:51:34;118.53;;;107.25;;
13255;SDS011;37913;48.370;10.930;2023-06-22T08:54:03;112.53;;;100.45;;
13255;SDS011;37913;48.370;10.930;2023-06-22T08:56:30;102.45;;;91.57;;
13255;SDS011;37913;48.370;10.930;2023-06-22T08:58:57;111.38;;;96.88;;
13255;SDS011;37913;48.370;10.930;2023-06-22T09:01:25;144.27;;;103.32;;
13255;SDS011;37913;48.370;10.930;2023-06-22T09:03:52;113.43;;;101.07;;
13255;SDS011;37913;48.370;10.930;2023-06-22T09:06:22;116.57;;;103.28;;
13255;SDS011;37913;48.370;10.930;2023-06-22T09:08:50;113.90;;;101.32;;
13255;SDS011;37913;48.370;10.930;2023-06-22T09:11:18;113.72;;;101.72;;
13255;SDS011;37913;48.370;10.930;2023-06-22T09:13:45;113.10;;;100.07;;
13255;SDS011;37913;48.370;10.930;2023-06-22T09:16:12;112.10;;;100.00;;
13255;SDS011;37913;48.370;10.930;2023-06-22T09:18:41;120.10;;;105.60;;
13255;SDS011;37913;48.370;10.930;2023-06-22T09:21:09;114.78;;;103.18;;
13255;SDS011;37913;48.370;10.930;2023-06-22T09:23:36;116.72;;;105.22;;
13255;SDS011;37913;48.370;10.930;2023-06-22T09:26:03;118.63;;;107.05;;
13255;SDS011;37913;48.370;10.930;2023-06-22T09:28:31;121.93;;;110.30;;
13255;SDS011;37913;48.370;10.930;2023-06-22T09:30:59;123.28;;;110.90;;
13255;SDS011;37913;48.370;10.930;2023-06-22T09:33:26;126.03;;;114.07;;
13255;SDS011;37913;48.370;10.930;2023-06-22T09:35:53;124.68;;;112.35;;
13255;SDS011;37913;48.370;10.930;2023-06-22T09:38:19;127.30;;;112.47;;
13255;SDS011;37913;48.370;10.930;2023-06-22T09:40:46;130.50;;;117.53;;
13255;SDS011;37913;48.370;10.930;2023-06-22T09:43:13;124.80;;;113.35;;
13255;SDS011;37913;48.370;10.930;2023-06-22T09:45:42;127.40;;;114.95;;
13255;SDS011;37913;48.370;10.930;2023-06-22T09:48:09;126.65;;;114.50;;
13255;SDS011;37913;48.370;10.930;2023-06-22T09:50:36;125.03;;;113.88;;
13255;SDS011;37913;48.370;10.930;2023-06-22T09:53:02;127.25;;;115.28;;
13255;SDS011;37913;48.370;10.930;2023-06-22T09:55:29;129.82;;;117.05;;
13255;SDS011;37913;48.370;10.930;2023-06-22T09:57:56;128.85;;;116.95;;
13255;SDS011;37913;48.370;10.930;2023-06-22T10:00:23;126.35;;;113.60;;
13255;SDS011;37913;48.370;10.930;2023-06-22T10:02:53;124.93;;;112.78;;
13255;SDS011;37913;48.370;10.930;2023-06-22T10:05:20;127.00;;;113.30;;
13255;SDS011;37913;48.370;10.930;2023-06-22T10:07:47;125.78;;;112.90;;
13255;SDS011;37913;48.370;10.930;2023-06-22T10:10:14;123.90;;;111.93;;
13255;SDS011;37913;48.370;10.930;2023-06-22T10:12:41;130.25;;;117.85;;
13255;SDS011;37913;48.370;10.930;2023-06-22T10:15:10;131.38;;;118.78;;
13255;SDS011;37913;48.370;10.930;2023-06-22T10:17:37;134.07;;;121.80;;
13255;SDS011;37913;48.370;10.930;2023-06-22T10:20:07;135.73;;;122.13;;
13255;SDS011;37913;48.370;10.930;2023-06-22T10:22:38;129.82;;;117.97;;
13255;SDS011;37913;48.370;10.930;2023-06-22T10:25:07;138.23;;;125.60;;
13255;SDS011;37913;48.370;10.930;2023-06-22T10:27:35;128.50;;;117.43;;
13255;SDS011;37913;48.370;10.930;2023-06-22T10:30:05;125.55;;;113.43;;
13255;SDS011;37913;48.370;10.930;2023-06-22T10:32:32;121.72;;;109.97;;
13255;SDS011;37913;48.370;10.930;2023-06-22T10:34:59;141.13;;;114.93;;
13255;SDS011;37913;48.370;10.930;2023-06-22T10:37:28;121.35;;;108.68;;
13255;SDS011;37913;48.370;10.930;2023-06-22T10:39:54;121.65;;;109.85;;
13255;SDS011;37913;48.370;10.930;2023-06-22T10:42:21;123.57;;;111.88;;
13255;SDS011;37913;48.370;10.930;2023-06-22T10:44:48;136.88;;;121.03;;
13255;SDS011;37913;48.370;10.930;2023-06-22T10:47:15;129.38;;;117.38;;
13255;SDS011;37913;48.370;10.930;2023-06-22T10:49:42;132.68;;;120.07;;
13255;SDS011;37913;48.370;10.930;2023-06-22T10:52:09;125.03;;;113.68;;
13255;SDS011;37913;48.370;10.930;2023-06-22T10:54:40;132.23;;;119.10;;
13255;SDS011;37913;48.370;10.930;2023-06-22T10:57:07;125.68;;;114.45;;
13255;SDS011;37913;48.370;10.930;2023-06-22T10:59:34;128.45;;;116.65;;
13255;SDS011;37913;48.370;10.930;2023-06-22T11:02:01;126.70;;;115.07;;
13255;SDS011;37913;48.370;10.930;2023-06-22T11:04:28;131.07;;;119.18;;
13255;SDS011;37913;48.370;10.930;2023-06-22T11:06:55;134.23;;;121.72;;
13255;SDS011;37913;48.370;10.930;2023-06-22T11:09:22;138.10;;;125.30;;
13255;SDS011;37913;48.370;10.930;2023-06-22T11:11:51;138.48;;;126.32;;
13255;SDS011;37913;48.370;10.930;2023-06-22T11:14:19;141.32;;;128.20;;
13255;SDS011;37913;48.370;10.930;2023-06-22T11:16:48;140.00;;;127.80;;
13255;SDS011;37913;48.370;10.930;2023-06-22T11:19:15;148.35;;;133.77;;
13255;SDS011;37913;48.370;10.930;2023-06-22T11:21:42;143.82;;;130.68;;
13255;SDS011;37913;48.370;10.930;2023-06-22T11:24:09;140.20;;;127.72;;
13255;SDS011;37913;48.370;10.930;2023-06-22T11:26:36;142.82;;;128.75;;
13255;SDS011;37913;48.370;10.930;2023-06-22T11:29:05;137.73;;;124.93;;
13255;SDS011;37913;48.370;10.930;2023-06-22T11:31:33;136.98;;;124.72;;
13255;SDS011;37913;48.370;10.930;2023-06-22T11:34:00;140.15;;;127.78;;
13255;SDS011;37913;48.370;10.930;2023-06-22T11:36:29;140.15;;;128.25;;
13255;SDS011;37913;48.370;10.930;2023-06-22T11:38:58;140.73;;;128.13;;
13255;SDS011;37913;48.370;10.930;2023-06-22T11:41:25;139.07;;;127.25;;
13255;SDS011;37913;48.370;10.930;2023-06-22T11:43:54;143.85;;;131.10;;
13255;SDS011;37913;48.370;10.930;2023-06-22T11:46:22;138.63;;;126.35;;
13255;SDS011;37913;48.370;10.930;2023-06-22T11:48:49;136.75;;;125.88;;
13255;SDS011;37913;48.370;10.930;2023-06-22T11:51:16;139.43;;;127.63;;
13255;SDS011;37913;48.370;10.930;2023-06-22T11:53:54;139.18;;;127.07;;
13255;SDS011;37913;48.370;10.930;2023-06-22T11:56:21;146.32;;;133.73;;
13255;SDS011;37913;48.370;10.930;2023-06-22T11:58:48;143.07;;;131.93;;
13255;SDS011;37913;48.370;10.930;2023-06-22T12:01:15;141.57;;;129.77;;
13255;SDS011;37913;48.370;10.930;2023-06-22T12:03:43;143.68;;;130.45;;
13255;SDS011;37913;48.370;10.930;2023-06-22T12:06:10;144.27;;;131.35;;
13255;SDS011;37913;48.370;10.930;2023-06-22T12:08:37;140.90;;;127.28;;
13255;SDS011;37913;48.370;10.930;2023-06-22T12:11:04;133.15;;;121.07;;
13255;SDS011;37913;48.370;10.930;2023-06-22T12:13:31;135.48;;;122.63;;
13255;SDS011;37913;48.370;10.930;2023-06-22T12:15:58;129.65;;;118.25;;
13255;SDS011;37913;48.370;10.930;2023-06-22T12:18:25;132.63;;;119.75;;
13255;SDS011;37913;48.370;10.930;2023-06-22T12:20:53;134.20;;;121.75;;
13255;SDS011;37913;48.370;10.930;2023-06-22T12:23:20;140.63;;;126.43;;
13255;SDS011;37913;48.370;10.930;2023-06-22T12:25:47;131.27;;;118.97;;
13255;SDS011;37913;48.370;10.930;2023-06-22T12:28:14;137.98;;;123.68;;
13255;SDS011;37913;48.370;10.930;2023-06-22T12:30:41;128.40;;;116.45;;
13255;SDS011;37913;48.370;10.930;2023-06-22T12:33:08;133.60;;;119.25;;
13255;SDS011;37913;48.370;10.930;2023-06-22T12:35:36;136.52;;;122.43;;
13255;SDS011;37913;48.370;10.930;2023-06-22T12:38:04;129.15;;;116.68;;
13255;SDS011;37913;48.370;10.930;2023-06-22T12:40:32;127.57;;;115.95;;
13255;SDS011;37913;48.370;10.930;2023-06-22T12:42:59;127.03;;;115.47;;
13255;SDS011;37913;48.370;10.930;2023-06-22T12:45:27;136.25;;;124.10;;
13255;SDS011;37913;48.370;10.930;2023-06-22T12:47:58;127.93;;;116.97;;
13255;SDS011;37913;48.370;10.930;2023-06-22T12:50:25;130.15;;;117.70;;
13255;SDS011;37913;48.370;10.930;2023-06-22T12:52:52;132.80;;;120.18;;
13255;SDS011;37913;48.370;10.930;2023-06-22T12:55:21;136.00;;;122.85;;
13255;SDS011;37913;48.370;10.930;2023-06-22T12:57:48;131.57;;;119.03;;
13255;SDS011;37913;48.370;10.930;2023-06-22T13:00:15;128.88;;;116.55;;
13255;SDS011;37913;48.370;10.930;2023-06-22T13:02:43;133.80;;;120.00;;
13255;SDS011;37913;48.370;10.930;2023-06-22T13:05:10;126.43;;;114.25;;
13255;SDS011;37913;48.370;10.930;2023-06-22T13:07:37;129.43;;;115.28;;
13255;SDS011;37913;48.370;10.930;2023-06-22T13:10:04;124.20;;;112.32;;
13255;SDS011;37913;48.370;10.930;2023-06-22T13:12:33;128.18;;;116.68;;
13255;SDS011;37913;48.370;10.930;2023-06-22T13:15:00;140.15;;;121.65;;
13255;SDS011;37913;48.370;10.930;2023-06-22T13:17:28;130.70;;;118.68;;
13255;SDS011;37913;48.370;10.930;2023-06-22T13:19:55;136.35;;;122.47;;
13255;SDS011;37913;48.370;10.930;2023-06-22T13:22:26;130.73;;;118.68;;
13255;SDS011;37913;48.370;10.930;2023-06-22T13:24:55;143.25;;;123.53;;
13255;SDS011;37913;48.370;10.930;2023-06-22T13:27:22;132.25;;;118.68;;
13255;SDS011;37913;48.370;10.930;2023-06-22T13:29:50;126.00;;;113.85;;
13255;SDS011;37913;48.370;10.930;2023-06-22T13:32:18;128.88;;;116.47;;
13255;SDS011;37913;48.370;10.930;2023-06-22T13:34:45;138.52;;;120.95;;
13255;SDS011;37913;48.370;10.930;2023-06-22T13:37:12;125.60;;;113.78;;
13255;SDS011;37913;48.370;10.930;2023-06-22T13:39:38;121.00;;;110.00;;
13255;SDS011;37913;48.370;10.930;2023-06-22T13:42:06;125.60;;;113.57;;
13255;SDS011;37913;48.370;10.930;2023-06-22T13:44:33;123.60;;;111.55;;
13255;SDS011;37913;48.370;10.930;2023-06-22T13:47:01;126.47;;;112.65;;
13255;SDS011;37913;48.370;10.930;2023-06-22T13:49:29;122.40;;;108.45;;
13255;SDS011;37913;48.370;10.930;2023-06-22T13:51:56;113.53;;;101.72;;
13255;SDS011;37913;48.370;10.930;2023-06-22T13:54:23;108.32;;;96.60;;
13255;SDS011;37913;48.370;10.930;2023-06-22T13:56:50;107.22;;;92.88;;
13255;SDS011;37913;48.370;10.930;2023-06-22T13:59:17;109.18;;;91.07;;
13255;SDS011;37913;48.370;10.930;2023-06-22T14:01:45;103.80;;;90.32;;